Time;durP1;ratioP1;P1;durP2;ratioP2;P2;SDS_P1;SDS_P2;PMS_P1;PMS_P2;Temp;Humidity;BMP_temperature;BMP_pressure;BME280_temperature;BME280_humidity;BME280_pressure;Samples;Min_cycle;Max_cycle;Signal;HPM_P1;HPM_P2
2024/01/25 00:01:06;;;;;;;;;;;;;;;17.87;56.10;101057.34;7394120;19;1432;-38
2024/01/25 00:03:34;;;;;;;;;;;;;;;17.81;56.12;101042.59;7394171;19;1357;-38
2024/01/25 00:06:03;;;;;;;;;;;;;;;17.88;55.83;101027.78;7394431;19;1622;-38
2024/01/25 00:08:31;;;;;;;;;;;;;;;17.88;56.00;101032.28;7394879;19;1728;-37
2024/01/25 00:11:02;;;;;;;;;;;;;;;17.89;55.95;101025.97;7394631;19;1164;-37
2024/01/25 00:13:30;;;;;;;;;;;;;;;17.88;55.93;101025.09;7391827;19;1585;-38
2024/01/25 00:15:59;;;;;;;;;;;;;;;17.91;55.94;101021.34;7394731;19;1138;-37
2024/01/25 00:18:29;;;;;;;;;;;;;;;17.93;55.89;101023.91;7391676;19;1855;-40
2024/01/25 00:20:58;;;;;;;;;;;;;;;17.85;55.80;101009.31;7393607;19;1698;-38
2024/01/25 00:23:26;;;;;;;;;;;;;;;17.92;55.81;100990.09;7393427;19;1311;-38
2024/01/25 00:25:57;;;;;;;;;;;;;;;17.90;55.64;100990.22;7393124;19;1496;-38
2024/01/25 00:28:28;;;;;;;;;;;;;;;17.86;55.78;100986.09;7391983;19;1787;-38
2024/01/25 00:30:57;;;;;;;;;;;;;;;17.85;55.78;100979.88;7392976;19;1212;-38
2024/01/25 00:33:25;;;;;;;;;;;;;;;17.91;55.70;100983.91;7384831;19;1756;-38
2024/01/25 00:35:54;;;;;;;;;;;;;;;17.86;55.65;100980.72;7389863;19;1373;-38
2024/01/25 00:38:22;;;;;;;;;;;;;;;17.91;55.60;101002.63;7392565;19;1846;-38
2024/01/25 00:40:51;;;;;;;;;;;;;;;17.95;55.66;100995.22;7394021;19;1119;-39
2024/01/25 00:43:20;;;;;;;;;;;;;;;17.96;55.45;101012.97;7392851;19;1666;-38
2024/01/25 00:45:51;;;;;;;;;;;;;;;17.92;55.48;101011.50;7392228;19;1480;-38
2024/01/25 00:48:20;;;;;;;;;;;;;;;17.98;55.59;101022.56;7392344;19;1455;-38
2024/01/25 00:50:48;;;;;;;;;;;;;;;17.98;55.64;101002.97;7392897;19;1599;-38
2024/01/25 00:53:17;;;;;;;;;;;;;;;17.95;55.66;101000.56;7392614;19;1377;-38
2024/01/25 00:55:46;;;;;;;;;;;;;;;17.92;55.83;101012.34;7392497;19;1219;-37
2024/01/25 00:58:14;;;;;;;;;;;;;;;17.95;55.85;101006.75;7391442;19;1869;-38
2024/01/25 01:00:43;;;;;;;;;;;;;;;17.92;55.69;101016.84;7392590;19;1617;-38
2024/01/25 01:03:14;;;;;;;;;;;;;;;17.95;55.82;101011.28;7391496;19;1828;-38
2024/01/25 01:05:43;;;;;;;;;;;;;;;18.02;55.54;101021.34;7390949;19;1573;-38
2024/01/25 01:08:12;;;;;;;;;;;;;;;17.99;55.63;101008.22;7393285;19;948;-38
2024/01/25 01:10:41;;;;;;;;;;;;;;;17.99;55.64;101007.38;7393124;19;1863;-38
2024/01/25 01:13:09;;;;;;;;;;;;;;;17.92;55.77;100979.41;7390780;19;1450;-38
2024/01/25 01:15:37;;;;;;;;;;;;;;;17.99;55.69;100975.25;7390235;19;1749;-38
2024/01/25 01:18:06;;;;;;;;;;;;;;;17.91;55.88;100949.13;7391353;19;1850;-38
2024/01/25 01:20:37;;;;;;;;;;;;;;;17.98;55.73;100952.97;7392399;19;1374;-38
2024/01/25 01:23:05;;;;;;;;;;;;;;;17.88;55.94;100947.53;7391750;19;1195;-38
2024/01/25 01:25:34;;;;;;;;;;;;;;;17.97;55.66;100966.50;7392940;19;1823;-38
2024/01/25 01:28:02;;;;;;;;;;;;;;;17.91;55.70;100948.28;7392656;19;1064;-37
2024/01/25 01:30:30;;;;;;;;;;;;;;;17.96;55.78;100968.31;7393034;19;1023;-38
2024/01/25 01:32:58;;;;;;;;;;;;;;;18.01;55.55;100951.91;7391399;19;1764;-38
2024/01/25 01:35:27;;;;;;;;;;;;;;;17.98;55.64;100930.75;7376324;19;1617;-38
2024/01/25 01:37:58;;;;;;;;;;;;;;;17.91;55.69;100913.50;7390248;19;1865;-38
2024/01/25 01:40:26;;;;;;;;;;;;;;;17.99;55.75;100921.75;7392007;19;1301;-38
2024/01/25 01:42:54;;;;;;;;;;;;;;;17.96;55.72;100895.22;7390835;19;1390;-38
2024/01/25 01:45:23;;;;;;;;;;;;;;;17.87;55.89;100920.91;7390412;19;1771;-38
2024/01/25 01:47:51;;;;;;;;;;;;;;;17.98;55.59;100903.97;7391263;19;1753;-38
2024/01/25 01:50:19;;;;;;;;;;;;;;;17.99;55.54;100917.25;7390013;19;1268;-38
2024/01/25 01:52:48;;;;;;;;;;;;;;;18.06;55.43;100923.81;7391283;19;1745;-37
2024/01/25 01:55:19;;;;;;;;;;;;;;;18.02;55.70;100921.47;7391693;19;1595;-38
2024/01/25 01:57:48;;;;;;;;;;;;;;;18.02;55.62;100908.09;7391090;19;1845;-37
2024/01/25 02:00:18;;;;;;;;;;;;;;;18.03;55.45;100907.13;7391507;19;1107;-38
2024/01/25 02:02:44;;;;;;;;;;;;;;;17.99;55.75;100895.00;7391165;19;1850;-38
2024/01/25 02:05:12;;;;;;;;;;;;;;;18.04;55.68;100907.00;7390060;19;1825;-38
2024/01/25 02:07:41;;;;;;;;;;;;;;;18.07;55.35;100882.66;7389303;19;1633;-38
2024/01/25 02:10:10;;;;;;;;;;;;;;;18.17;55.18;100889.94;7390215;19;1803;-38
2024/01/25 02:12:41;;;;;;;;;;;;;;;18.13;55.46;100901.88;7390600;19;1681;-38
2024/01/25 02:15:10;;;;;;;;;;;;;;;18.11;55.33;100875.25;7390360;19;1036;-38
2024/01/25 02:17:38;;;;;;;;;;;;;;;18.08;55.48;100878.16;7389679;19;1865;-38
2024/01/25 02:20:07;;;;;;;;;;;;;;;18.10;55.69;100897.63;7388916;19;1592;-38
2024/01/25 02:22:38;;;;;;;;;;;;;;;18.04;55.67;100872.19;7389168;19;1223;-38
2024/01/25 02:25:07;;;;;;;;;;;;;;;18.12;55.45;100866.22;7390002;19;1791;-38
2024/01/25 02:27:38;;;;;;;;;;;;;;;18.19;55.24;100879.97;7389671;19;1306;-38
2024/01/25 02:30:07;;;;;;;;;;;;;;;18.11;55.31;100861.03;7389213;19;1559;-38
2024/01/25 02:32:35;;;;;;;;;;;;;;;18.16;55.32;100873.00;7389892;19;1349;-38
2024/01/25 02:35:04;;;;;;;;;;;;;;;18.14;55.50;100880.31;7374652;19;1486;-38
2024/01/25 02:37:32;;;;;;;;;;;;;;;18.14;55.50;100872.28;7390256;19;1091;-38
2024/01/25 02:40:03;;;;;;;;;;;;;;;18.17;55.36;100869.38;7387988;19;1839;-38
2024/01/25 02:42:31;;;;;;;;;;;;;;;18.15;55.46;100876.69;7387496;19;1847;-38
2024/01/25 02:45:00;;;;;;;;;;;;;;;18.14;55.50;100866.94;7389883;19;1749;-38
2024/01/25 02:47:28;;;;;;;;;;;;;;;18.17;55.62;100885.44;7389281;19;1815;-38
2024/01/25 02:49:56;;;;;;;;;;;;;;;18.19;55.37;100888.00;7389280;19;1388;-38
2024/01/25 02:52:25;;;;;;;;;;;;;;;18.15;55.65;100874.00;7390589;19;967;-38
2024/01/25 02:54:53;;;;;;;;;;;;;;;18.11;55.49;100861.03;7389461;19;1123;-38
2024/01/25 02:57:24;;;;;;;;;;;;;;;18.16;55.38;100869.50;7389613;19;1851;-38
2024/01/25 02:59:52;;;;;;;;;;;;;;;18.17;55.37;100880.09;7386186;19;1853;-38
2024/01/25 03:02:21;;;;;;;;;;;;;;;18.26;55.14;100876.66;7388001;19;1553;-38
2024/01/25 03:04:49;;;;;;;;;;;;;;;18.29;55.08;100875.53;7388543;19;1521;-37
2024/01/25 03:07:17;;;;;;;;;;;;;;;18.22;55.22;100868.97;7388469;19;1273;-38
2024/01/25 03:09:46;;;;;;;;;;;;;;;18.19;55.46;100879.97;7388368;19;1851;-38
2024/01/25 03:12:14;;;;;;;;;;;;;;;18.16;55.48;100878.38;7388604;19;1052;-38
2024/01/25 03:14:45;;;;;;;;;;;;;;;18.20;55.35;100874.47;7387188;19;1579;-38
2024/01/25 03:17:14;;;;;;;;;;;;;;;18.17;55.51;100898.81;7384433;19;1491;-38
2024/01/25 03:19:42;;;;;;;;;;;;;;;18.24;55.22;100905.38;7386904;19;1862;-38
2024/01/25 03:22:10;;;;;;;;;;;;;;;18.25;55.23;100877.63;7393378;19;1536;-38
2024/01/25 03:24:40;;;;;;;;;;;;;;;18.23;55.32;100900.97;7395292;19;1143;-38
2024/01/25 03:27:12;;;;;;;;;;;;;;;18.18;55.38;100895.16;7396363;19;1559;-38
2024/01/25 03:29:43;;;;;;;;;;;;;;;18.19;55.42;100899.53;7394718;19;1568;-38
2024/01/25 03:32:14;;;;;;;;;;;;;;;18.16;55.43;100881.03;7394839;19;1575;-38
2024/01/25 03:34:42;;;;;;;;;;;;;;;18.25;55.27;100896.34;7381142;19;1682;-38
2024/01/25 03:37:10;;;;;;;;;;;;;;;18.28;54.99;100890.75;7394985;19;1413;-38
2024/01/25 03:39:38;;;;;;;;;;;;;;;18.22;55.37;100885.91;7392930;19;1848;-38
2024/01/25 03:42:07;;;;;;;;;;;;;;;18.19;55.47;100898.69;7395580;19;1728;-38
2024/01/25 03:44:35;;;;;;;;;;;;;;;18.15;55.49;100911.47;7394475;19;1585;-38
2024/01/25 03:47:04;;;;;;;;;;;;;;;18.19;55.60;100915.59;7396635;19;1017;-38
2024/01/25 03:49:35;;;;;;;;;;;;;;;18.20;55.42;100908.41;7395512;19;1383;-38
2024/01/25 03:52:03;;;;;;;;;;;;;;;18.22;55.26;100907.34;7394986;19;1508;-38
2024/01/25 03:54:31;;;;;;;;;;;;;;;18.21;55.42;100927.03;7394811;19;1934;-38
2024/01/25 03:56:59;;;;;;;;;;;;;;;18.16;55.41;100918.50;7395750;19;1507;-38
2024/01/25 03:59:28;;;;;;;;;;;;;;;18.20;55.53;100924.47;7393555;19;1854;-38
2024/01/25 04:01:56;;;;;;;;;;;;;;;18.30;55.17;100917.38;7394075;19;1499;-38
2024/01/25 04:04:24;;;;;;;;;;;;;;;18.45;54.89;100928.66;7394092;19;1764;-38
2024/01/25 04:06:55;;;;;;;;;;;;;;;18.58;54.68;100921.31;7393361;19;1554;-38
2024/01/25 04:09:24;;;;;;;;;;;;;;;18.58;54.62;100902.56;7393974;19;1486;-38
2024/01/25 04:11:52;;;;;;;;;;;;;;;18.65;54.40;100898.34;7395597;19;1372;-38
2024/01/25 04:14:20;;;;;;;;;;;;;;;18.57;54.68;100911.56;7391868;19;1789;-38
2024/01/25 04:16:49;;;;;;;;;;;;;;;18.60;54.67;100915.78;7392544;19;1484;-38
2024/01/25 04:19:17;;;;;;;;;;;;;;;18.60;54.60;100910.44;7391570;19;1890;-38
2024/01/25 04:21:46;;;;;;;;;;;;;;;18.60;54.80;100919.34;7393833;19;1246;-38
2024/01/25 04:24:16;;;;;;;;;;;;;;;18.58;54.67;100918.63;7392829;19;1453;-38
2024/01/25 04:26:45;;;;;;;;;;;;;;;18.67;54.59;100930.38;7394761;19;1499;-38
2024/01/25 04:29:13;;;;;;;;;;;;;;;18.61;54.85;100934.41;7393605;19;1495;-38
2024/01/25 04:31:45;;;;;;;;;;;;;;;18.63;54.70;100911.03;7389408;19;1515;-38
2024/01/25 04:34:15;;;;;;;;;;;;;;;18.63;54.67;100915.56;7394196;19;1262;-38
2024/01/25 04:36:43;;;;;;;;;;;;;;;18.60;54.74;100914.00;7375123;19;2369;-38
2024/01/25 04:39:12;;;;;;;;;;;;;;;18.60;54.64;100935.41;7390024;19;1864;-39
2024/01/25 04:41:43;;;;;;;;;;;;;;;18.78;54.45;100918.75;7393165;19;1637;-38
2024/01/25 04:44:11;;;;;;;;;;;;;;;18.88;54.21;100936.63;7392577;19;1564;-39
2024/01/25 04:46:39;;;;;;;;;;;;;;;18.80;54.24;100949.84;7392124;19;1494;-38
2024/01/25 04:49:08;;;;;;;;;;;;;;;18.70;54.63;100938.13;7393351;19;1404;-39
2024/01/25 04:51:36;;;;;;;;;;;;;;;18.65;55.06;100965.31;7391314;19;1492;-38
2024/01/25 04:54:06;;;;;;;;;;;;;;;18.44;54.38;100972.47;7390585;19;1469;-38
2024/01/25 04:56:34;;;;;;;;;;;;;;;18.40;54.81;100957.63;7391012;19;1455;-38
2024/01/25 04:59:05;;;;;;;;;;;;;;;18.38;54.74;100981.00;7391778;19;1833;-39
2024/01/25 05:01:34;;;;;;;;;;;;;;;18.29;54.68;100970.06;7387780;19;1448;-38
2024/01/25 05:04:03;;;;;;;;;;;;;;;18.32;54.89;100968.13;7389957;19;1344;-39
2024/01/25 05:06:31;;;;;;;;;;;;;;;18.36;55.00;100966.88;7391633;19;1530;-38
2024/01/25 05:08:59;;;;;;;;;;;;;;;18.41;54.22;100970.91;7387205;19;1438;-39
2024/01/25 05:11:28;;;;;;;;;;;;;;;18.45;54.30;100963.47;7388305;19;1506;-37
2024/01/25 05:13:56;;;;;;;;;;;;;;;18.66;53.77;100966.16;7385991;19;1844;-37
2024/01/25 05:16:27;;;;;;;;;;;;;;;18.74;53.80;100973.56;7388679;19;1710;-37
2024/01/25 05:18:55;;;;;;;;;;;;;;;18.82;53.43;100981.84;7387449;19;1872;-37
2024/01/25 05:21:24;;;;;;;;;;;;;;;18.86;53.47;100975.25;7388526;19;1357;-37
2024/01/25 05:23:52;;;;;;;;;;;;;;;18.85;53.42;100965.50;7388842;19;1729;-37
2024/01/25 05:26:21;;;;;;;;;;;;;;;18.81;53.46;100977.47;7389087;19;1211;-37
2024/01/25 05:28:49;;;;;;;;;;;;;;;18.71;53.57;100976.53;7389305;19;1807;-37
2024/01/25 05:31:17;;;;;;;;;;;;;;;18.64;53.86;100976.16;7389395;19;1313;-37
2024/01/25 05:33:48;;;;;;;;;;;;;;;18.49;54.15;100994.38;7390911;19;1401;-37
2024/01/25 05:36:17;;;;;;;;;;;;;;;18.55;53.99;100983.16;7376765;19;1744;-37
2024/01/25 05:38:45;;;;;;;;;;;;;;;18.59;53.84;100989.94;7390917;19;1856;-37
2024/01/25 05:41:13;;;;;;;;;;;;;;;18.82;53.35;100997.91;7389462;19;1666;-37
2024/01/25 05:43:42;;;;;;;;;;;;;;;18.72;53.64;100995.16;7390995;19;1527;-37
2024/01/25 05:46:10;;;;;;;;;;;;;;;18.76;53.40;100995.72;7391851;19;1530;-37
2024/01/25 05:48:39;;;;;;;;;;;;;;;18.78;53.55;101000.00;7391402;19;1745;-37
2024/01/25 05:51:10;;;;;;;;;;;;;;;18.81;53.28;100997.06;7391720;19;1514;-37
2024/01/25 05:53:38;;;;;;;;;;;;;;;18.86;53.13;100996.66;7390604;19;1744;-37
2024/01/25 05:56:07;;;;;;;;;;;;;;;18.80;53.23;100989.16;7391407;19;1475;-37
2024/01/25 05:58:35;;;;;;;;;;;;;;;18.81;53.44;100975.63;7388855;19;1752;-37
2024/01/25 06:01:04;;;;;;;;;;;;;;;18.85;52.91;100984.28;7388924;19;1870;-37
2024/01/25 06:03:32;;;;;;;;;;;;;;;18.73;53.27;100991.47;7389242;19;1699;-37
2024/01/25 06:06:00;;;;;;;;;;;;;;;18.63;53.42;101004.78;7390423;19;1547;-37
2024/01/25 06:08:31;;;;;;;;;;;;;;;18.56;53.53;100995.56;7391281;19;1216;-38
2024/01/25 06:11:00;;;;;;;;;;;;;;;18.58;53.45;101012.38;7392193;19;1083;-37
2024/01/25 06:13:28;;;;;;;;;;;;;;;18.47;53.54;101002.53;7386392;19;1496;-37
2024/01/25 06:15:56;;;;;;;;;;;;;;;17.98;54.61;100997.63;7386578;19;1414;-37
2024/01/25 06:18:24;;;;;;;;;;;;;;;17.57;55.39;101013.28;7385664;19;1503;-37
2024/01/25 06:20:53;;;;;;;;;;;;;;;17.30;56.17;101024.28;7386578;19;1834;-37
2024/01/25 06:23:21;;;;;;;;;;;;;;;17.74;55.16;101017.28;7390272;19;1292;-37
2024/01/25 06:25:52;;;;;;;;;;;;;;;18.43;53.56;101022.50;7389369;19;1366;-37
2024/01/25 06:28:20;;;;;;;;;;;;;;;18.85;52.56;101013.75;7388865;19;1875;-37
2024/01/25 06:30:49;;;;;;;;;;;;;;;18.87;52.57;101014.47;7388083;19;1415;-37
2024/01/25 06:33:17;;;;;;;;;;;;;;;18.94;52.16;101026.38;7388335;19;1491;-37
2024/01/25 06:35:45;;;;;;;;;;;;;;;18.92;52.27;101014.06;7374075;19;1275;-37
2024/01/25 06:38:14;;;;;;;;;;;;;;;18.94;52.23;101012.09;7388924;19;1371;-37
2024/01/25 06:40:42;;;;;;;;;;;;;;;18.84;52.16;101004.00;7385677;19;1850;-37
2024/01/25 06:43:13;;;;;;;;;;;;;;;18.80;52.07;101030.22;7388608;19;1266;-37
2024/01/25 06:45:42;;;;;;;;;;;;;;;18.60;52.65;101028.28;7361065;19;1618;-37
2024/01/25 06:48:11;;;;;;;;;;;;;;;18.49;52.62;101000.56;7384374;19;1566;-37
2024/01/25 06:50:39;;;;;;;;;;;;;;;17.99;53.27;101012.72;7387259;19;1572;-37
2024/01/25 06:53:07;;;;;;;;;;;;;;;17.53;54.67;101014.50;7369562;19;1502;-37
2024/01/25 06:55:35;;;;;;;;;;;;;;;17.25;55.23;101008.63;7387318;19;1282;-37
2024/01/25 06:58:04;;;;;;;;;;;;;;;17.16;55.69;101014.66;7394572;19;1322;-37
2024/01/25 07:00:35;;;;;;;;;;;;;;;16.98;55.86;101006.22;7395601;19;1854;-37
2024/01/25 07:03:03;;;;;;;;;;;;;;;16.88;56.12;100999.88;7394847;19;1831;-37
2024/01/25 07:05:33;;;;;;;;;;;;;;;16.90;56.46;101009.47;7395833;19;1583;-37
2024/01/25 07:08:01;;;;;;;;;;;;;;;17.55;54.75;100990.28;7393655;19;1469;-37
2024/01/25 07:10:29;;;;;;;;;;;;;;;17.95;53.74;100993.38;7396227;19;1839;-37
2024/01/25 07:12:58;;;;;;;;;;;;;;;18.55;52.36;100993.00;7394294;19;1511;-37
2024/01/25 07:15:26;;;;;;;;;;;;;;;18.86;51.71;100975.25;7394359;19;1230;-37
2024/01/25 07:17:57;;;;;;;;;;;;;;;19.16;51.04;100997.75;7394807;19;1145;-37
2024/01/25 07:20:26;;;;;;;;;;;;;;;19.29;50.49;100998.41;7370832;19;1913;-37
2024/01/25 07:22:54;;;;;;;;;;;;;;;19.17;50.89;101000.28;7391776;19;1916;-37
2024/01/25 07:25:22;;;;;;;;;;;;;;;19.03;51.48;100993.44;7395927;19;1171;-37
2024/01/25 07:27:51;;;;;;;;;;;;;;;19.14;51.14;100979.13;7391299;19;1539;-37
2024/01/25 07:30:20;;;;;;;;;;;;;;;19.14;51.18;100986.28;7392586;19;1566;-38
2024/01/25 07:32:49;;;;;;;;;;;;;;;18.67;51.25;100941.09;7392918;19;1352;-37
2024/01/25 07:35:20;;;;;;;;;;;;;;;19.00;51.34;100988.34;7380399;19;1471;-37
2024/01/25 07:37:48;;;;;;;;;;;;;;;18.83;51.28;100986.22;7379572;19;1491;-37
2024/01/25 07:40:17;;;;;;;;;;;;;;;18.80;51.30;100994.50;7387002;19;1847;-37
2024/01/25 07:42:45;;;;;;;;;;;;;;;18.66;51.51;100996.50;7373499;19;1733;-37
2024/01/25 07:45:14;;;;;;;;;;;;;;;18.57;51.88;100997.25;7383996;19;1460;-37
2024/01/25 07:47:44;;;;;;;;;;;;;;;18.55;51.71;101012.59;7391723;19;1503;-37
2024/01/25 07:50:12;;;;;;;;;;;;;;;18.45;51.94;101011.66;7393045;19;1494;-38
2024/01/25 07:52:43;;;;;;;;;;;;;;;18.48;51.78;101003.34;7368074;19;1429;-39
2024/01/25 07:55:12;;;;;;;;;;;;;;;18.44;51.97;100997.44;7389906;19;2538;-38
2024/01/25 07:57:40;;;;;;;;;;;;;;;18.40;52.12;100989.75;7392761;19;1853;-39
2024/01/25 08:00:09;;;;;;;;;;;;;;;18.39;52.08;100996.09;7392255;19;1861;-38
2024/01/25 08:02:40;;;;;;;;;;;;;;;18.44;52.20;100994.75;7392632;19;1740;-38
2024/01/25 08:05:08;;;;;;;;;;;;;;;18.42;52.12;100994.03;7392144;19;1453;-38
2024/01/25 08:07:36;;;;;;;;;;;;;;;18.54;51.87;101002.84;7392428;19;1338;-38
2024/01/25 08:10:08;;;;;;;;;;;;;;;18.47;51.70;100990.97;7390478;19;1377;-38
2024/01/25 08:12:39;;;;;;;;;;;;;;;18.40;51.83;100984.41;7375519;19;1999;-38
2024/01/25 08:15:08;;;;;;;;;;;;;;;18.45;52.00;100992.91;7391873;19;1741;-36
2024/01/25 08:17:39;;;;;;;;;;;;;;;18.49;52.16;101002.41;7372229;19;1506;-36
2024/01/25 08:20:08;;;;;;;;;;;;;;;18.47;52.08;101001.69;7380289;19;1837;-37
2024/01/25 08:22:37;;;;;;;;;;;;;;;18.50;52.08;101001.41;7384384;19;1080;-36
2024/01/25 08:25:09;;;;;;;;;;;;;;;18.49;51.89;100984.50;7390096;19;1157;-38
2024/01/25 08:27:37;;;;;;;;;;;;;;;18.52;51.75;100998.59;7386177;19;1588;-39
2024/01/25 08:30:06;;;;;;;;;;;;;;;18.46;52.01;101008.00;7394176;19;1207;-38
2024/01/25 08:32:35;;;;;;;;;;;;;;;18.52;51.93;101010.16;7391763;19;1863;-38
2024/01/25 08:35:03;;;;;;;;;;;;;;;18.53;51.87;101011.03;7392216;19;1602;-38
2024/01/25 08:37:32;;;;;;;;;;;;;;;18.55;52.00;101011.75;7377150;19;1526;-38
2024/01/25 08:40:01;;;;;;;;;;;;;;;18.57;51.62;101001.78;7390911;19;1865;-39
2024/01/25 08:42:35;;;;;;;;;;;;;;;18.64;51.54;101014.53;7378636;19;1552;-38
2024/01/25 08:45:04;;;;;;;;;;;;;;;18.60;51.59;101001.50;7373913;19;1364;-38
2024/01/25 08:47:34;;;;;;;;;;;;;;;18.59;51.79;101010.53;7386134;19;1426;-38
2024/01/25 08:50:03;;;;;;;;;;;;;;;18.58;51.70;101040.94;7386353;19;1437;-38
2024/01/25 08:52:29;;;;;;;;;;;;;;;18.56;51.69;100984.84;7380224;19;1268;-38
2024/01/25 08:54:57;;;;;;;;;;;;;;;18.60;51.69;101013.09;7381903;19;1268;-38
2024/01/25 08:57:26;;;;;;;;;;;;;;;18.52;52.06;101010.16;7367945;19;1484;-36
2024/01/25 08:59:58;;;;;;;;;;;;;;;18.61;51.78;101008.56;7391730;19;1856;-38
2024/01/25 09:02:27;;;;;;;;;;;;;;;18.55;52.12;101007.25;7388948;19;1198;-38
2024/01/25 09:04:56;;;;;;;;;;;;;;;18.64;52.08;100995.78;7389924;19;1358;-38
2024/01/25 09:07:24;;;;;;;;;;;;;;;18.59;51.48;101011.38;7388786;19;1376;-38
2024/01/25 09:09:52;;;;;;;;;;;;;;;18.53;51.92;101019.06;7385777;19;1333;-38
2024/01/25 09:12:21;;;;;;;;;;;;;;;18.51;52.02;100995.09;7390064;19;1219;-38
2024/01/25 09:14:49;;;;;;;;;;;;;;;18.54;52.09;101005.53;7391305;19;1295;-38
2024/01/25 09:17:21;;;;;;;;;;;;;;;18.46;52.08;101002.63;7390892;19;1040;-38
2024/01/25 09:19:50;;;;;;;;;;;;;;;18.43;52.23;100995.72;7391126;19;1781;-38
2024/01/25 09:22:19;;;;;;;;;;;;;;;18.54;52.30;100991.28;7387721;19;1851;-38
2024/01/25 09:24:47;;;;;;;;;;;;;;;18.71;51.60;101008.66;7385185;19;1513;-39
2024/01/25 09:27:16;;;;;;;;;;;;;;;18.73;51.73;101001.34;7388707;19;1210;-38
2024/01/25 09:29:44;;;;;;;;;;;;;;;18.73;51.64;101028.97;7388205;19;1479;-38
2024/01/25 09:32:13;;;;;;;;;;;;;;;18.70;51.69;101002.44;7387883;19;1163;-38
2024/01/25 09:34:44;;;;;;;;;;;;;;;18.72;51.51;101005.00;7392262;19;1111;-38
2024/01/25 09:37:12;;;;;;;;;;;;;;;18.82;51.54;101008.63;7374514;19;1777;-38
2024/01/25 09:39:40;;;;;;;;;;;;;;;18.83;51.58;101002.31;7390417;19;1500;-37
2024/01/25 09:42:10;;;;;;;;;;;;;;;18.83;51.59;100987.06;7390260;19;1857;-38
2024/01/25 09:44:38;;;;;;;;;;;;;;;18.81;51.72;101009.63;7387148;19;1325;-37
2024/01/25 09:47:08;;;;;;;;;;;;;;;18.88;51.55;100998.28;7387987;19;1562;-38
2024/01/25 09:49:36;;;;;;;;;;;;;;;18.90;51.53;100990.09;7388087;19;1048;-38
2024/01/25 09:52:07;;;;;;;;;;;;;;;18.94;51.39;100986.19;7387824;19;1768;-38
2024/01/25 09:54:36;;;;;;;;;;;;;;;18.86;51.54;100992.19;7386598;19;1867;-38
2024/01/25 09:57:06;;;;;;;;;;;;;;;18.88;51.43;100973.31;7386611;19;1567;-38
2024/01/25 09:59:34;;;;;;;;;;;;;;;18.92;51.42;100988.16;7390045;19;1678;-38
2024/01/25 10:02:04;;;;;;;;;;;;;;;18.90;51.41;100971.34;7388900;19;1886;-37
2024/01/25 10:04:32;;;;;;;;;;;;;;;18.89;51.62;100985.72;7390332;19;1405;-37
2024/01/25 10:07:01;;;;;;;;;;;;;;;18.95;51.39;100960.22;7388631;19;1207;-37
2024/01/25 10:09:34;;;;;;;;;;;;;;;18.99;51.30;100975.91;7389671;19;1732;-37
2024/01/25 10:12:02;;;;;;;;;;;;;;;18.99;51.18;100967.88;7390474;19;1100;-37
2024/01/25 10:14:30;;;;;;;;;;;;;;;19.02;51.35;100964.06;7391668;19;1017;-37
2024/01/25 10:17:00;;;;;;;;;;;;;;;19.02;51.29;100964.06;7388778;19;1940;-37
2024/01/25 10:19:28;;;;;;;;;;;;;;;19.01;51.33;100971.25;7389880;19;1408;-37
2024/01/25 10:21:56;;;;;;;;;;;;;;;19.00;51.31;100961.53;7388346;19;1849;-36
2024/01/25 10:24:25;;;;;;;;;;;;;;;18.97;51.46;100993.09;7391376;19;1226;-37
2024/01/25 10:26:56;;;;;;;;;;;;;;;18.97;51.27;100951.06;7388962;19;1698;-37
2024/01/25 10:29:24;;;;;;;;;;;;;;;18.98;51.44;100968.88;7388094;19;1227;-37
2024/01/25 10:31:52;;;;;;;;;;;;;;;19.01;51.31;100949.81;7390693;19;1449;-37
2024/01/25 10:34:21;;;;;;;;;;;;;;;19.01;51.43;100963.22;7390225;19;1842;-37
2024/01/25 10:36:49;;;;;;;;;;;;;;;19.03;51.24;100977.34;7374333;19;1235;-37
2024/01/25 10:39:18;;;;;;;;;;;;;;;19.06;51.28;100944.94;7391585;19;1043;-37
2024/01/25 10:41:50;;;;;;;;;;;;;;;19.03;51.32;100952.38;7390090;19;1863;-37
2024/01/25 10:44:21;;;;;;;;;;;;;;;18.95;51.44;100926.22;7390629;19;1923;-37
2024/01/25 10:46:50;;;;;;;;;;;;;;;19.01;51.38;100968.59;7389662;19;1839;-37
2024/01/25 10:49:21;;;;;;;;;;;;;;;19.02;51.39;100937.25;7389138;19;1839;-36
2024/01/25 10:51:50;;;;;;;;;;;;;;;19.08;51.26;100921.53;7389695;19;1484;-37
2024/01/25 10:54:19;;;;;;;;;;;;;;;19.12;51.17;100905.16;7390020;19;1472;-37
2024/01/25 10:56:47;;;;;;;;;;;;;;;19.11;51.25;100908.84;7388878;19;1763;-37
2024/01/25 10:59:15;;;;;;;;;;;;;;;19.12;51.10;100905.16;7388604;19;1511;-37
2024/01/25 11:01:48;;;;;;;;;;;;;;;19.15;51.12;100891.50;7387298;19;1848;-37
2024/01/25 11:04:18;;;;;;;;;;;;;;;19.13;51.28;100891.63;7389661;19;1184;-37
2024/01/25 11:06:46;;;;;;;;;;;;;;;19.12;51.33;100883.72;7390523;19;1823;-37
2024/01/25 11:09:19;;;;;;;;;;;;;;;19.03;51.42;100872.81;7389862;19;1538;-37
2024/01/25 11:11:49;;;;;;;;;;;;;;;19.07;51.24;100878.75;7389815;19;984;-37
2024/01/25 11:14:19;;;;;;;;;;;;;;;19.14;51.12;100887.97;7388169;19;1918;-37
2024/01/25 11:16:50;;;;;;;;;;;;;;;19.15;51.15;100876.25;7386698;19;1396;-37
2024/01/25 11:19:19;;;;;;;;;;;;;;;19.11;51.27;100882.88;7388592;19;1409;-36
2024/01/25 11:21:48;;;;;;;;;;;;;;;19.05;51.35;100883.41;7386020;19;1854;-37
2024/01/25 11:24:16;;;;;;;;;;;;;;;19.06;51.27;100869.03;7387449;19;1421;-37
2024/01/25 11:26:45;;;;;;;;;;;;;;;19.02;51.24;100868.47;7386599;19;1617;-37
2024/01/25 11:29:15;;;;;;;;;;;;;;;19.13;51.22;100875.56;7388240;19;1480;-37
2024/01/25 11:31:44;;;;;;;;;;;;;;;19.03;51.36;100872.81;7387592;19;1179;-37
2024/01/25 11:34:16;;;;;;;;;;;;;;;19.14;51.06;100885.31;7388652;19;1772;-37
2024/01/25 11:36:44;;;;;;;;;;;;;;;19.10;51.37;100881.19;7373346;19;1111;-37
2024/01/25 11:39:13;;;;;;;;;;;;;;;19.13;51.36;100885.44;7389096;19;1067;-37
2024/01/25 11:41:42;;;;;;;;;;;;;;;19.15;51.37;100872.75;7392509;19;1834;-37
2024/01/25 11:44:11;;;;;;;;;;;;;;;19.12;51.29;100873.88;7395366;19;1816;-37
2024/01/25 11:46:40;;;;;;;;;;;;;;;19.08;51.34;100872.44;7396120;19;1840;-36
2024/01/25 11:49:08;;;;;;;;;;;;;;;19.12;51.28;100873.00;7395072;19;1752;-37
2024/01/25 11:51:39;;;;;;;;;;;;;;;19.04;51.55;100871.00;7394650;19;1845;-37
2024/01/25 11:54:08;;;;;;;;;;;;;;;19.15;51.15;100875.44;7394664;19;1298;-37
2024/01/25 11:56:38;;;;;;;;;;;;;;;19.17;51.13;100870.78;7392971;19;1144;-37
2024/01/25 11:59:06;;;;;;;;;;;;;;;19.16;51.10;100874.44;7395086;19;1266;-37
2024/01/25 12:01:35;;;;;;;;;;;;;;;19.18;51.20;100883.19;7393955;19;1835;-36
2024/01/25 12:04:04;;;;;;;;;;;;;;;19.17;51.15;100865.41;7394196;19;1527;-37
2024/01/25 12:06:33;;;;;;;;;;;;;;;19.26;51.18;100880.72;7394643;19;1484;-37
2024/01/25 12:09:12;;;;;;;;;;;;;;;19.19;51.12;100877.69;7395587;19;1388;-37
2024/01/25 12:11:41;;;;;;;;;;;;;;;19.24;51.20;100878.16;7394282;19;1067;-37
2024/01/25 12:14:09;;;;;;;;;;;;;;;19.25;51.01;100868.28;7394253;19;1803;-37
2024/01/25 12:16:38;;;;;;;;;;;;;;;19.20;51.00;100862.44;7391852;19;1749;-37
2024/01/25 12:19:06;;;;;;;;;;;;;;;19.20;51.26;100865.13;7392483;19;1843;-37
2024/01/25 12:21:36;;;;;;;;;;;;;;;19.16;51.21;100856.53;7392385;19;1859;-37
2024/01/25 12:24:05;;;;;;;;;;;;;;;19.17;51.20;100860.06;7394253;19;1886;-37
2024/01/25 12:26:39;;;;;;;;;;;;;;;19.13;51.39;100855.94;7393798;19;1740;-37
2024/01/25 12:29:08;;;;;;;;;;;;;;;19.23;51.10;100846.09;7393711;19;1761;-37
2024/01/25 12:31:36;;;;;;;;;;;;;;;19.14;51.35;100852.25;7393059;19;1519;-37
2024/01/25 12:34:05;;;;;;;;;;;;;;;19.22;51.21;100860.50;7395241;19;1550;-37
2024/01/25 12:36:33;;;;;;;;;;;;;;;19.20;51.18;100828.47;7380352;19;993;-38
2024/01/25 12:39:02;;;;;;;;;;;;;;;19.19;51.21;100839.31;7393247;19;1503;-37
2024/01/25 12:41:31;;;;;;;;;;;;;;;19.22;51.04;100847.09;7393153;19;1917;-36
2024/01/25 12:44:01;;;;;;;;;;;;;;;19.30;51.17;100838.38;7393230;19;1542;-37
2024/01/25 12:46:30;;;;;;;;;;;;;;;19.21;51.15;100842.72;7394073;19;1771;-37
2024/01/25 12:48:58;;;;;;;;;;;;;;;19.27;51.08;100834.97;7392805;19;1748;-37
2024/01/25 12:51:27;;;;;;;;;;;;;;;19.22;51.22;100831.03;7392361;19;1649;-37
2024/01/25 12:53:55;;;;;;;;;;;;;;;19.20;51.23;100838.31;7390940;19;1417;-37
2024/01/25 12:56:23;;;;;;;;;;;;;;;19.16;51.36;100820.81;7391834;19;1124;-36